Time;durP1;ratioP1;P1;durP2;ratioP2;P2;SDS_P1;SDS_P2;PMS_P1;PMS_P2;Temp;Humidity;BMP_temperature;BMP_pressure;BME280_temperature;BME280_humidity;BME280_pressure;Samples;Min_cycle;Max_cycle;Signal;HPM_P1;HPM_P2
2022/01/15 00:00:04;;;;;;;5.18;1.67;;;5.10;94.40;;;;;;5114917;28;20031;-77
2022/01/15 00:02:30;;;;;;;5.20;1.60;;;5.10;94.40;;;;;;5097612;28;20131;-76
2022/01/15 00:04:56;;;;;;;5.38;1.95;;;5.10;94.60;;;;;;5114619;28;20122;-77
2022/01/15 00:07:22;;;;;;;4.55;1.58;;;5.10;94.40;;;;;;5114432;28;20050;-77
2022/01/15 00:09:50;;;;;;;4.75;1.80;;;5.20;94.40;;;;;;5114338;28;20036;-77
2022/01/15 00:12:15;;;;;;;4.20;1.60;;;5.10;94.40;;;;;;5132787;28;20440;-77
2022/01/15 00:14:42;;;;;;;7.82;2.53;;;5.10;94.40;;;;;;5097406;28;20100;-77
2022/01/15 00:17:16;;;;;;;3.90;1.40;;;5.10;94.40;;;;;;5097242;28;20378;-77
2022/01/15 00:19:42;;;;;;;6.35;2.25;;;5.00;94.40;;;;;;5134276;27;20039;-77
2022/01/15 00:22:14;;;;;;;4.97;1.80;;;5.00;94.40;;;;;;5117689;28;20042;-77
2022/01/15 00:24:40;;;;;;;4.40;1.27;;;5.10;94.40;;;;;;5117852;28;20050;-77
2022/01/15 00:27:07;;;;;;;3.88;1.60;;;5.00;94.40;;;;;;5100815;28;20061;-77
2022/01/15 00:29:34;;;;;;;3.38;1.20;;;5.00;94.40;;;;;;5136256;27;20061;-77
2022/01/15 00:32:00;;;;;;;7.30;2.05;;;5.00;94.40;;;;;;5118269;28;20049;-77
2022/01/15 00:34:27;;;;;;;5.00;1.70;;;5.00;94.50;;;;;;5117930;28;20043;-77
2022/01/15 00:36:54;;;;;;;4.57;1.42;;;5.00;94.50;;;;;;5117968;28;20057;-77
2022/01/15 00:39:20;;;;;;;6.53;1.98;;;5.00;94.40;;;;;;5135925;28;20065;-77
2022/01/15 00:41:45;;;;;;;7.78;2.05;;;5.00;94.40;;;;;;5100657;28;20058;-77
2022/01/15 00:44:11;;;;;;;4.28;1.70;;;5.00;94.40;;;;;;5100577;28;20107;-77
2022/01/15 00:46:37;;;;;;;3.05;1.15;;;5.00;94.40;;;;;;5118048;28;20039;-77
2022/01/15 00:49:03;;;;;;;6.03;1.95;;;4.90;94.40;;;;;;5117357;28;20050;-77
2022/01/15 00:51:29;;;;;;;4.13;1.58;;;5.00;94.50;;;;;;5100451;28;20047;-77
2022/01/15 00:53:55;;;;;;;6.75;2.03;;;4.90;94.40;;;;;;5117872;28;20497;-77
2022/01/15 00:56:21;;;;;;;5.57;1.63;;;4.90;94.40;;;;;;5083188;28;20594;-77
2022/01/15 00:58:46;;;;;;;5.28;1.70;;;4.90;94.40;;;;;;5117346;28;20069;-77
2022/01/15 01:01:12;;;;;;;5.20;1.45;;;4.90;94.40;;;;;;5100254;28;20495;-77
2022/01/15 01:03:38;;;;;;;6.70;2.13;;;4.90;94.40;;;;;;5136173;28;20037;-77
2022/01/15 01:06:04;;;;;;;2.83;1.40;;;4.90;94.40;;;;;;5117066;28;20124;-77
2022/01/15 01:08:30;;;;;;;5.78;1.90;;;4.80;94.40;;;;;;5135789;27;20039;-77
2022/01/15 01:11:00;;;;;;;8.77;2.30;;;4.80;94.40;;;;;;5117427;27;20046;-77
2022/01/15 01:22:53;;;;;;;3.92;1.40;;;4.80;94.40;;;;;;5135117;28;20086;-77
2022/01/15 01:24:13;;;;;;;6.55;1.70;;;4.80;94.40;;;;;;5119649;28;20051;-77
2022/01/15 01:26:46;;;;;;;3.78;1.33;;;4.80;94.40;;;;;;5135257;28;20396;-77
2022/01/15 01:31:56;;;;;;;4.35;1.45;;;4.80;94.40;;;;;;5134247;27;20045;-77
2022/01/15 01:34:25;;;;;;;4.30;1.30;;;4.70;94.40;;;;;;5117800;28;20134;-77
2022/01/15 01:39:39;;;;;;;6.57;1.63;;;4.70;94.70;;;;;;5134795;28;20490;-77
2022/01/15 01:42:14;;;;;;;5.38;1.65;;;4.70;94.40;;;;;;5134827;27;20095;-77
2022/01/15 01:44:58;;;;;;;6.50;1.63;;;4.70;94.40;;;;;;5117646;28;20031;-77
2022/01/15 01:47:35;;;;;;;4.40;1.63;;;4.70;94.40;;;;;;5116563;28;20096;-76
2022/01/15 01:50:00;;;;;;;6.88;1.67;;;4.70;94.40;;;;;;5118218;28;20054;-77
2022/01/15 01:52:26;;;;;;;3.55;1.33;;;4.60;94.40;;;;;;5134962;28;20035;-77
2022/01/15 01:54:53;;;;;;;5.13;1.88;;;4.70;94.50;;;;;;5114858;28;20044;-77
2022/01/15 01:57:19;;;;;;;5.65;1.45;;;4.70;94.50;;;;;;5134740;28;20482;-77
2022/01/15 01:59:45;;;;;;;4.07;1.35;;;4.70;94.50;;;;;;5134773;27;20035;-77
2022/01/15 02:02:10;;;;;;;6.32;1.60;;;4.60;94.40;;;;;;5116888;28;20454;-77
2022/01/15 02:04:36;;;;;;;3.65;1.40;;;4.70;94.70;;;;;;5116392;28;20078;-77
2022/01/15 02:07:02;;;;;;;3.53;1.20;;;4.60;94.40;;;;;;5099100;28;20077;-77
2022/01/15 02:09:28;;;;;;;6.55;1.52;;;4.60;94.40;;;;;;5116030;28;20035;-78
2022/01/15 02:11:53;;;;;;;4.93;1.77;;;4.50;94.40;;;;;;5116245;28;20066;-77
2022/01/15 02:14:34;;;;;;;3.90;1.23;;;4.60;94.50;;;;;;5099085;28;20482;-77
2022/01/15 02:17:00;;;;;;;3.28;1.10;;;4.60;94.40;;;;;;5115740;28;20426;-76
2022/01/15 02:19:44;;;;;;;4.22;1.33;;;4.50;94.40;;;;;;5134488;28;20036;-77
2022/01/15 02:24:53;;;;;;;3.40;1.25;;;4.50;94.40;;;;;;5118627;28;20118;-77
2022/01/15 02:27:19;;;;;;;5.60;1.77;;;4.50;94.40;;;;;;5134382;28;20078;-77
2022/01/15 02:29:44;;;;;;;4.43;1.45;;;4.50;94.50;;;;;;5115889;28;20047;-77
2022/01/15 02:32:10;;;;;;;4.80;1.80;;;4.50;94.50;;;;;;5115750;28;20039;-77
2022/01/15 02:34:36;;;;;;;6.10;2.05;;;4.50;94.50;;;;;;5115966;28;20039;-77
2022/01/15 02:37:02;;;;;;;4.20;1.45;;;4.50;94.50;;;;;;5115795;28;20040;-77
2022/01/15 02:39:28;;;;;;;3.17;1.05;;;4.50;94.50;;;;;;5115680;28;20062;-76
2022/01/15 02:41:53;;;;;;;4.68;1.55;;;4.50;94.50;;;;;;5098598;27;20501;-77
2022/01/15 02:44:20;;;;;;;4.63;1.58;;;4.50;94.40;;;;;;5134090;27;20039;-77
2022/01/15 02:49:32;;;;;;;5.25;1.70;;;4.50;94.50;;;;;;5104850;28;20070;-77
2022/01/15 02:51:57;;;;;;;4.05;1.30;;;4.50;94.40;;;;;;5115539;28;20051;-77
2022/01/15 02:54:23;;;;;;;4.70;1.38;;;4.40;94.40;;;;;;5116131;28;20035;-77
2022/01/15 02:56:49;;;;;;;4.25;1.45;;;4.40;94.50;;;;;;5115358;28;20414;-77
2022/01/15 02:59:19;;;;;;;3.22;1.17;;;4.40;94.50;;;;;;5098472;28;20031;-77
2022/01/15 03:01:46;;;;;;;3.65;1.33;;;4.40;94.50;;;;;;5113519;28;20109;-76
2022/01/15 03:04:12;;;;;;;4.75;1.42;;;4.40;94.50;;;;;;5115295;28;20046;-77
2022/01/15 03:06:37;;;;;;;4.13;1.30;;;4.40;94.50;;;;;;5115302;28;20035;-77
2022/01/15 03:09:03;;;;;;;3.38;1.25;;;4.40;94.50;;;;;;5133774;28;20350;-77
2022/01/15 03:11:29;;;;;;;4.07;1.20;;;4.50;94.50;;;;;;5133557;28;20390;-77
2022/01/15 03:13:55;;;;;;;3.53;1.13;;;4.40;94.40;;;;;;5115131;28;20031;-77
2022/01/15 03:16:22;;;;;;;4.95;1.63;;;4.40;94.40;;;;;;5133230;27;20050;-77
2022/01/15 03:18:48;;;;;;;5.18;1.70;;;4.50;94.50;;;;;;5115038;28;20397;-77
2022/01/15 03:21:15;;;;;;;4.47;1.30;;;4.40;94.40;;;;;;5097908;28;20474;-77
2022/01/15 03:23:41;;;;;;;3.80;1.70;;;4.40;94.40;;;;;;5133374;28;20069;-76
2022/01/15 03:26:08;;;;;;;4.35;1.20;;;4.40;94.40;;;;;;5097744;28;20031;-77
2022/01/15 03:28:34;;;;;;;4.60;1.35;;;4.40;94.40;;;;;;5115538;28;20134;-77
2022/01/15 03:31:01;;;;;;;3.67;1.30;;;4.40;94.40;;;;;;5081201;28;20057;-77
2022/01/15 03:33:26;;;;;;;4.60;1.30;;;4.30;94.50;;;;;;5133122;27;20393;-77
2022/01/15 03:35:52;;;;;;;4.00;1.15;;;4.40;94.50;;;;;;5114768;28;20043;-77
2022/01/15 03:38:18;;;;;;;4.82;1.58;;;4.40;94.40;;;;;;5133528;28;20504;-77
2022/01/15 03:40:44;;;;;;;4.20;1.55;;;4.30;94.40;;;;;;5114924;28;20046;-77
2022/01/15 03:43:10;;;;;;;5.88;1.52;;;4.40;94.50;;;;;;5133362;28;20035;-77
2022/01/15 03:45:36;;;;;;;5.90;1.70;;;4.40;94.50;;;;;;5115204;28;20383;-77
2022/01/15 03:48:02;;;;;;;2.70;1.10;;;4.40;94.50;;;;;;5114906;28;20130;-77
2022/01/15 03:50:28;;;;;;;3.25;1.15;;;4.30;94.40;;;;;;5132917;28;20043;-76
2022/01/15 03:52:54;;;;;;;2.55;1.10;;;4.40;94.50;;;;;;5115290;28;20066;-76
2022/01/15 03:55:21;;;;;;;1.92;0.95;;;4.40;94.40;;;;;;5132982;27;20031;-77
2022/01/15 03:57:47;;;;;;;3.05;1.50;;;4.30;94.40;;;;;;5114556;28;20035;-77
2022/01/15 04:00:17;;;;;;;3.58;1.10;;;4.40;94.70;;;;;;5115052;28;20450;-77
2022/01/15 04:02:43;;;;;;;2.95;1.20;;;4.30;94.40;;;;;;5132957;27;20066;-77
2022/01/15 04:05:11;;;;;;;3.25;1.40;;;4.40;94.40;;;;;;5097435;28;20486;-76
2022/01/15 04:07:37;;;;;;;4.45;1.40;;;4.30;94.40;;;;;;5132857;28;20047;-77
2022/01/15 04:10:05;;;;;;;2.72;1.08;;;4.30;94.40;;;;;;5097433;28;20414;-77
2022/01/15 04:12:31;;;;;;;5.10;1.52;;;4.20;94.40;;;;;;5132661;27;20035;-76
2022/01/15 04:14:56;;;;;;;2.50;1.00;;;4.30;94.70;;;;;;5132665;28;20444;-77
2022/01/15 04:17:22;;;;;;;4.63;1.52;;;4.30;94.40;;;;;;5113976;28;20078;-77
2022/01/15 04:19:48;;;;;;;3.97;1.35;;;4.40;94.40;;;;;;5114168;28;20039;-77
2022/01/15 04:22:14;;;;;;;4.80;1.80;;;4.40;94.40;;;;;;5114338;28;20035;-77
2022/01/15 04:24:39;;;;;;;4.93;1.90;;;4.30;94.40;;;;;;5133011;28;20089;-77
2022/01/15 04:27:05;;;;;;;4.13;1.40;;;4.30;94.40;;;;;;5114130;28;20040;-76
2022/01/15 04:29:33;;;;;;;3.25;1.52;;;4.20;94.40;;;;;;5080331;28;20051;-77
2022/01/15 04:31:59;;;;;;;3.67;1.13;;;4.20;94.40;;;;;;5132854;28;20047;-77
2022/01/15 04:34:27;;;;;;;3.78;1.52;;;4.30;94.40;;;;;;5097158;28;20081;-77
2022/01/15 04:37:01;;;;;;;4.68;1.60;;;4.30;94.40;;;;;;5130298;27;20126;-77
2022/01/15 04:39:27;;;;;;;3.92;1.55;;;4.30;94.40;;;;;;5132564;28;20047;-77
2022/01/15 04:41:53;;;;;;;3.97;1.58;;;4.30;94.40;;;;;;5113964;28;20039;-77
2022/01/15 04:44:19;;;;;;;3.22;1.52;;;4.30;94.40;;;;;;5113913;28;20047;-77
2022/01/15 04:46:44;;;;;;;4.72;1.70;;;4.20;94.40;;;;;;5097201;28;20039;-77
2022/01/15 04:49:10;;;;;;;3.38;1.25;;;4.40;94.40;;;;;;5113868;28;20043;-77
2022/01/15 04:51:36;;;;;;;3.20;1.35;;;4.30;94.40;;;;;;5096882;28;20553;-77
2022/01/15 04:54:03;;;;;;;4.90;1.70;;;4.20;94.40;;;;;;5113782;28;20042;-77
2022/01/15 04:56:29;;;;;;;4.20;1.58;;;4.30;94.40;;;;;;5132268;28;20371;-77
2022/01/15 04:58:55;;;;;;;3.22;1.60;;;4.20;94.40;;;;;;5096625;28;20149;-77
2022/01/15 05:01:21;;;;;;;4.45;1.45;;;4.20;94.40;;;;;;5132369;27;20039;-77
2022/01/15 05:03:47;;;;;;;3.22;1.20;;;4.30;94.40;;;;;;5113885;28;20081;-77
2022/01/15 05:06:13;;;;;;;3.75;1.40;;;4.40;94.50;;;;;;5098123;28;20486;-77
2022/01/15 05:08:40;;;;;;;3.33;1.40;;;4.30;94.40;;;;;;5117329;28;20079;-77
2022/01/15 05:11:14;;;;;;;4.68;1.52;;;4.20;94.40;;;;;;5100455;28;20405;-77
2022/01/15 05:13:40;;;;;;;3.35;1.35;;;4.30;94.40;;;;;;5101227;28;20100;-77
2022/01/15 05:16:06;;;;;;;3.58;1.30;;;4.20;94.40;;;;;;5117161;28;20055;-77
2022/01/15 05:18:32;;;;;;;4.55;1.67;;;4.20;94.40;;;;;;5135512;27;20482;-77
2022/01/15 05:20:58;;;;;;;3.63;1.50;;;4.30;94.40;;;;;;5117172;28;20096;-76
2022/01/15 05:23:24;;;;;;;4.13;1.42;;;4.30;94.40;;;;;;5117305;28;20168;-77
2022/01/15 05:25:50;;;;;;;4.78;1.50;;;4.20;94.40;;;;;;5135246;28;20065;-77
2022/01/15 05:28:16;;;;;;;5.03;1.67;;;4.20;94.40;;;;;;5135485;27;20454;-77
2022/01/15 05:30:42;;;;;;;4.20;1.70;;;4.30;94.40;;;;;;5135577;28;20096;-77
2022/01/15 05:33:08;;;;;;;5.30;2.17;;;4.30;94.40;;;;;;5135963;28;20051;-78
2022/01/15 05:35:33;;;;;;;4.57;1.77;;;4.30;94.40;;;;;;5136088;28;20404;-77
2022/01/15 05:37:59;;;;;;;4.55;1.60;;;4.30;94.40;;;;;;5136041;28;20039;-77
2022/01/15 05:40:26;;;;;;;5.32;1.88;;;4.30;94.30;;;;;;5083244;28;20070;-77
2022/01/15 05:42:53;;;;;;;7.35;2.10;;;4.20;94.40;;;;;;5083072;28;20508;-77
2022/01/15 05:45:21;;;;;;;8.60;2.25;;;4.20;94.40;;;;;;5083235;28;20058;-77
2022/01/15 05:47:47;;;;;;;4.90;1.80;;;4.30;94.40;;;;;;5083424;28;20043;-76
2022/01/15 05:50:14;;;;;;;4.90;1.77;;;4.20;94.30;;;;;;5100049;28;20097;-77
2022/01/15 05:52:40;;;;;;;5.63;1.88;;;4.30;94.30;;;;;;5116800;28;20047;-76
2022/01/15 05:55:07;;;;;;;3.83;1.55;;;4.30;94.40;;;;;;5099602;28;20039;-77
2022/01/15 05:57:32;;;;;;;4.00;1.83;;;4.30;94.40;;;;;;5135707;27;20043;-77
2022/01/15 05:59:58;;;;;;;3.30;1.40;;;4.30;94.30;;;;;;5099549;28;20512;-76
2022/01/15 06:02:31;;;;;;;4.72;1.73;;;4.30;94.40;;;;;;5099666;28;20398;-77
2022/01/15 06:04:56;;;;;;;5.55;1.83;;;4.30;94.30;;;;;;5134821;28;20032;-77
2022/01/15 06:07:22;;;;;;;3.85;1.58;;;4.30;94.30;;;;;;5082560;28;20039;-77
2022/01/15 06:09:48;;;;;;;4.57;1.77;;;4.50;94.40;;;;;;5135282;28;20042;-77
2022/01/15 06:12:14;;;;;;;5.85;1.80;;;4.30;94.60;;;;;;5116704;28;20600;-77
2022/01/15 06:14:39;;;;;;;3.75;1.48;;;4.30;94.30;;;;;;5099257;28;20054;-77
2022/01/15 06:17:08;;;;;;;5.07;1.98;;;4.30;94.30;;;;;;5115896;28;20126;-77
2022/01/15 06:19:37;;;;;;;5.65;2.10;;;4.30;94.30;;;;;;5083287;28;20043;-76
2022/01/15 06:22:03;;;;;;;5.15;1.73;;;4.30;94.30;;;;;;5116175;28;20070;-77
2022/01/15 06:24:30;;;;;;;7.88;2.33;;;4.30;94.30;;;;;;5116252;28;20085;-76
2022/01/15 06:26:56;;;;;;;4.65;1.70;;;4.30;94.30;;;;;;5082178;28;20039;-77
2022/01/15 06:29:23;;;;;;;6.45;1.98;;;4.30;94.30;;;;;;5134636;28;20043;-77
2022/01/15 06:31:48;;;;;;;3.78;1.70;;;4.30;94.30;;;;;;5099036;28;20090;-77
2022/01/15 06:34:14;;;;;;;5.72;2.03;;;4.30;94.40;;;;;;5115975;28;20446;-77
2022/01/15 06:36:40;;;;;;;7.28;2.05;;;4.30;94.30;;;;;;5098939;28;20039;-76
2022/01/15 06:39:05;;;;;;;4.38;1.67;;;4.30;94.30;;;;;;5116003;28;20038;-77
2022/01/15 06:41:31;;;;;;;6.35;2.28;;;4.30;94.30;;;;;;5115906;28;20385;-77
2022/01/15 06:43:57;;;;;;;4.50;1.63;;;4.30;94.30;;;;;;5116213;28;20080;-77
2022/01/15 06:46:22;;;;;;;6.10;2.13;;;4.30;94.30;;;;;;5116387;28;20039;-77
2022/01/15 06:48:48;;;;;;;4.85;1.88;;;4.20;94.30;;;;;;5116014;28;20126;-77
2022/01/15 06:51:14;;;;;;;6.25;2.38;;;4.30;94.40;;;;;;5115709;28;20039;-77
2022/01/15 06:53:40;;;;;;;4.50;1.98;;;4.20;94.30;;;;;;5098571;28;20047;-77
2022/01/15 06:56:06;;;;;;;3.97;1.80;;;4.30;94.30;;;;;;5081958;28;20122;-77
2022/01/15 06:58:31;;;;;;;4.70;1.90;;;4.20;94.30;;;;;;5115354;27;20046;-77
2022/01/15 07:00:57;;;;;;;7.63;2.40;;;4.20;94.30;;;;;;5115708;28;20043;-77
2022/01/15 07:03:23;;;;;;;4.82;2.08;;;4.30;94.40;;;;;;5098595;28;20438;-76
2022/01/15 07:05:48;;;;;;;6.53;2.30;;;4.20;94.30;;;;;;5116059;27;20062;-77
2022/01/15 07:08:14;;;;;;;6.65;2.03;;;4.20;94.30;;;;;;5098445;28;20428;-77
2022/01/15 07:10:41;;;;;;;5.28;2.10;;;4.20;94.30;;;;;;5133754;27;20075;-77
2022/01/15 07:13:08;;;;;;;7.93;2.60;;;4.20;94.30;;;;;;5134659;27;20035;-76
2022/01/15 07:15:34;;;;;;;6.20;2.22;;;4.30;94.40;;;;;;5098774;28;20092;-77
2022/01/15 07:18:00;;;;;;;4.90;1.95;;;4.30;94.40;;;;;;5098357;28;20035;-76
2022/01/15 07:20:28;;;;;;;8.05;2.58;;;4.30;94.40;;;;;;5099309;28;20035;-77
2022/01/15 07:22:54;;;;;;;13.10;2.67;;;4.20;94.30;;;;;;5082065;28;20042;-77
2022/01/15 07:25:20;;;;;;;5.20;2.03;;;4.30;94.40;;;;;;5133630;27;20481;-77
2022/01/15 07:27:46;;;;;;;5.85;2.40;;;4.20;94.30;;;;;;5081619;28;20065;-77
2022/01/15 07:30:13;;;;;;;4.32;1.75;;;4.20;94.30;;;;;;5133391;27;20031;-77
2022/01/15 07:32:41;;;;;;;7.72;2.40;;;4.20;94.30;;;;;;5115479;28;20067;-77
2022/01/15 07:35:09;;;;;;;5.93;2.17;;;4.20;94.40;;;;;;5081476;28;20039;-77
2022/01/15 07:37:36;;;;;;;5.25;2.10;;;4.20;94.30;;;;;;5115125;28;20134;-77
2022/01/15 07:40:04;;;;;;;6.50;1.85;;;4.20;94.30;;;;;;5081445;28;20039;-77
2022/01/15 07:42:35;;;;;;;6.25;2.38;;;4.20;94.30;;;;;;5133418;28;20035;-77
2022/01/15 07:45:03;;;;;;;;;;;4.20;94.40;;;;;;5100160;28;20035;-77
2022/01/15 07:47:29;;;;;;;9.02;2.33;;;4.20;94.30;;;;;;5098017;28;20338;-77
2022/01/15 07:49:55;;;;;;;7.53;2.13;;;4.20;94.30;;;;;;5114961;28;20039;-77
2022/01/15 07:52:20;;;;;;;11.02;3.03;;;4.20;94.30;;;;;;5114753;28;20051;-77
2022/01/15 07:54:46;;;;;;;7.20;2.60;;;4.30;94.40;;;;;;5114809;28;20046;-78
2022/01/15 07:57:12;;;;;;;7.68;2.38;;;4.10;94.30;;;;;;5114916;28;20035;-78
2022/01/15 07:59:38;;;;;;;6.68;2.78;;;4.20;94.30;;;;;;5114471;28;20055;-77
2022/01/15 08:02:05;;;;;;;11.13;2.85;;;4.20;94.40;;;;;;5080996;28;20343;-78
2022/01/15 08:04:31;;;;;;;6.93;2.25;;;4.30;94.40;;;;;;5097827;28;20042;-79
2022/01/15 08:06:57;;;;;;;7.63;2.70;;;4.30;94.40;;;;;;5097753;28;20478;-77
2022/01/15 08:09:23;;;;;;;5.85;2.13;;;4.20;94.60;;;;;;5080599;28;20128;-77
2022/01/15 08:11:49;;;;;;;6.30;2.20;;;4.20;94.40;;;;;;5097561;28;20043;-77
2022/01/15 08:14:14;;;;;;;7.55;2.20;;;4.20;94.40;;;;;;5097527;28;20393;-77
2022/01/15 08:16:40;;;;;;;7.93;2.15;;;4.30;94.40;;;;;;5097603;28;20039;-76
2022/01/15 08:19:06;;;;;;;6.22;2.13;;;4.30;94.40;;;;;;5097359;28;20046;-76
2022/01/15 08:21:32;;;;;;;7.18;2.28;;;4.30;94.40;;;;;;5080685;28;20043;-76
2022/01/15 08:23:58;;;;;;;4.57;1.65;;;4.30;94.40;;;;;;5114749;28;20035;-77
2022/01/15 08:26:24;;;;;;;8.27;2.22;;;4.30;94.40;;;;;;5097329;28;20039;-77
2022/01/15 08:28:50;;;;;;;6.03;2.08;;;4.30;94.40;;;;;;5080684;28;20134;-77
2022/01/15 08:31:15;;;;;;;8.65;2.80;;;4.30;94.40;;;;;;5114653;28;20051;-77
2022/01/15 08:33:41;;;;;;;6.32;2.25;;;4.30;94.40;;;;;;5114312;28;20489;-77
2022/01/15 08:36:07;;;;;;;5.60;2.20;;;4.30;94.40;;;;;;5097345;28;20078;-76
2022/01/15 08:38:33;;;;;;;8.60;2.47;;;4.30;94.40;;;;;;5114819;28;20512;-77
2022/01/15 08:40:58;;;;;;;10.05;2.90;;;4.30;94.40;;;;;;5116366;27;20031;-77
2022/01/15 08:43:24;;;;;;;13.80;3.50;;;4.30;94.30;;;;;;5136771;28;20447;-78
2022/01/15 08:45:50;;;;;;;8.45;2.60;;;4.30;94.30;;;;;;5117789;28;20130;-77
2022/01/15 08:48:19;;;;;;;7.00;2.50;;;4.20;94.30;;;;;;5101338;28;20038;-77
2022/01/15 08:50:46;;;;;;;7.07;2.50;;;4.30;94.40;;;;;;5118868;28;20039;-78
2022/01/15 08:53:13;;;;;;;9.23;2.72;;;4.30;94.40;;;;;;5136544;27;20047;-78
2022/01/15 08:55:41;;;;;;;9.00;2.42;;;4.30;94.40;;;;;;5084077;28;20485;-78
2022/01/15 08:58:08;;;;;;;5.75;2.60;;;4.30;94.40;;;;;;5118098;28;20104;-78
2022/01/15 09:00:34;;;;;;;8.70;2.53;;;4.30;94.40;;;;;;5115782;28;20490;-78
2022/01/15 09:03:00;;;;;;;6.70;2.08;;;4.30;94.30;;;;;;5100724;28;20043;-78
2022/01/15 09:05:26;;;;;;;5.28;2.20;;;4.30;94.40;;;;;;5118007;28;20043;-78
2022/01/15 09:07:52;;;;;;;8.18;2.70;;;4.40;94.40;;;;;;5118204;28;20382;-75
2022/01/15 09:10:18;;;;;;;9.38;2.58;;;4.30;94.40;;;;;;5100613;28;20442;-75
2022/01/15 10:10:29;;;;;;;4.05;1.63;;;4.40;94.30;;;;;;4894691;29;20048;-77
2022/01/15 10:16:33;;;;;;;4.00;1.45;;;4.50;94.30;;;;;;4873275;29;20041;-77
2022/01/15 10:19:02;;;;;;;6.82;2.40;;;4.40;94.30;;;;;;4876573;29;20069;-79
2022/01/15 10:21:33;;;;;;;3.55;1.63;;;4.40;94.30;;;;;;4876671;29;20051;-78
2022/01/15 10:24:26;;;;;;;10.02;2.90;;;4.60;94.40;;;;;;4876142;29;20049;-78
2022/01/15 10:26:52;;;;;;;7.90;2.42;;;4.50;94.30;;;;;;4862017;29;20060;-78
2022/01/15 10:29:18;;;;;;;5.20;2.67;;;4.60;94.40;;;;;;4862337;29;20444;-79
2022/01/15 10:31:44;;;;;;;5.80;2.10;;;4.50;94.40;;;;;;4891551;29;20546;-79
2022/01/15 10:34:33;;;;;;;7.30;2.60;;;4.40;94.30;;;;;;4896650;29;20036;-79
2022/01/15 10:37:09;;;;;;;7.25;2.22;;;4.40;94.30;;;;;;4933223;29;20047;-79
2022/01/15 10:39:35;;;;;;;5.68;2.15;;;4.40;94.30;;;;;;4952999;28;20130;-79
2022/01/15 10:42:01;;;;;;;5.07;2.00;;;4.50;94.40;;;;;;4953184;28;20129;-79
2022/01/15 10:44:32;;;;;;;6.45;2.50;;;4.40;94.30;;;;;;5058962;28;20040;-79
2022/01/15 10:47:10;;;;;;;5.53;2.25;;;4.40;94.40;;;;;;5095847;28;20391;-79
2022/01/15 10:49:38;;;;;;;6.45;2.00;;;4.40;94.30;;;;;;5114104;28;20070;-79
2022/01/15 10:52:11;;;;;;;4.45;1.80;;;4.40;94.30;;;;;;5095354;28;20042;-77
2022/01/15 10:55:09;;;;;;;6.30;2.05;;;4.40;94.40;;;;;;5095792;28;20050;-78
2022/01/15 10:57:38;;;;;;;5.00;1.88;;;4.40;94.40;;;;;;5112198;28;20071;-78
2022/01/15 11:00:22;;;;;;;5.85;2.13;;;4.40;94.70;;;;;;5113784;28;20067;-80
2022/01/15 11:02:52;;;;;;;4.18;1.95;;;4.40;94.40;;;;;;5113894;28;20080;-79
2022/01/15 11:05:38;;;;;;;5.90;2.08;;;4.40;94.40;;;;;;5112595;28;20077;-79
2022/01/15 11:08:08;;;;;;;5.90;2.00;;;4.50;94.40;;;;;;5112348;28;20114;-79
2022/01/15 11:10:42;;;;;;;5.18;1.95;;;4.40;94.40;;;;;;5112849;28;20042;-79
2022/01/15 11:13:11;;;;;;;4.00;1.58;;;4.50;94.40;;;;;;5095020;28;20038;-80
2022/01/15 11:15:38;;;;;;;4.60;1.92;;;4.50;94.40;;;;;;5113382;28;20096;-80
2022/01/15 11:18:04;;;;;;;4.25;1.60;;;4.50;94.40;;;;;;5112612;28;20071;-79
2022/01/15 11:20:33;;;;;;;4.88;1.70;;;4.50;94.50;;;;;;5112065;28;20161;-79
2022/01/15 11:23:01;;;;;;;3.42;1.38;;;4.40;94.40;;;;;;5112193;28;20494;-78
2022/01/15 11:25:29;;;;;;;3.28;1.42;;;4.50;94.40;;;;;;5078094;28;20062;-79
2022/01/15 11:27:57;;;;;;;3.70;1.42;;;4.50;94.40;;;;;;5078849;28;20494;-78
2022/01/15 11:30:24;;;;;;;4.65;1.35;;;4.50;94.50;;;;;;5078192;28;20035;-79
2022/01/15 11:32:50;;;;;;;6.00;2.00;;;4.50;94.40;;;;;;5078269;28;20047;-78
2022/01/15 11:35:16;;;;;;;5.40;1.67;;;4.40;94.40;;;;;;5077955;28;20063;-79
2022/01/15 11:37:49;;;;;;;6.82;2.00;;;4.40;94.50;;;;;;5077732;28;20039;-79
2022/01/15 11:40:35;;;;;;;6.10;2.00;;;4.40;94.50;;;;;;5078517;28;20043;-79
2022/01/15 11:43:36;;;;;;;4.22;1.77;;;4.40;94.50;;;;;;5094576;28;20499;-79
2022/01/15 11:46:21;;;;;;;4.35;1.73;;;4.40;94.40;;;;;;5094448;28;20059;-79
2022/01/15 11:48:47;;;;;;;5.43;1.70;;;4.40;94.50;;;;;;5080367;28;20123;-79
2022/01/15 11:51:30;;;;;;;3.85;1.38;;;4.30;94.40;;;;;;5081109;28;20047;-79
2022/01/15 11:54:00;;;;;;;4.68;1.77;;;4.30;94.50;;;;;;5098093;28;20443;-78
2022/01/15 11:56:36;;;;;;;3.75;1.40;;;4.30;94.50;;;;;;5081239;28;20039;-79
2022/01/15 11:59:41;;;;;;;5.57;1.67;;;4.40;94.50;;;;;;5081999;28;20051;-79
2022/01/15 12:02:37;;;;;;;4.78;1.60;;;4.30;94.50;;;;;;5099988;28;20516;-78
2022/01/15 12:05:27;;;;;;;4.88;1.60;;;4.50;94.60;;;;;;5099394;28;20485;-79
2022/01/15 12:08:21;;;;;;;5.07;2.15;;;4.40;94.50;;;;;;5097607;28;20050;-78
2022/01/15 12:10:50;;;;;;;6.28;1.80;;;4.40;94.50;;;;;;5085422;28;20114;-78
2022/01/15 12:13:19;;;;;;;4.75;1.85;;;4.40;94.50;;;;;;5081083;28;20055;-79
2022/01/15 12:15:46;;;;;;;5.57;1.77;;;4.40;94.40;;;;;;5075027;28;20036;-78
2022/01/15 12:18:17;;;;;;;5.68;1.90;;;4.40;94.50;;;;;;5059806;28;20076;-78
2022/01/15 12:20:44;;;;;;;4.88;1.90;;;4.40;94.40;;;;;;5059662;28;20032;-78
2022/01/15 12:23:27;;;;;;;5.30;2.03;;;4.30;94.40;;;;;;5059534;28;20039;-78
2022/01/15 12:25:56;;;;;;;3.83;1.83;;;4.30;94.50;;;;;;5057782;28;20257;-78
2022/01/15 12:28:25;;;;;;;4.70;1.67;;;4.30;94.50;;;;;;5059311;28;20039;-79
2022/01/15 12:30:54;;;;;;;2.97;1.25;;;4.30;94.50;;;;;;5059336;28;20051;-78
2022/01/15 12:33:21;;;;;;;4.97;1.88;;;4.50;94.60;;;;;;5060043;28;20135;-78
2022/01/15 12:35:50;;;;;;;4.82;1.88;;;4.30;94.50;;;;;;5059822;28;20067;-78
2022/01/15 12:38:25;;;;;;;5.85;1.83;;;4.30;94.50;;;;;;5076480;28;20403;-78
2022/01/15 12:40:55;;;;;;;6.75;2.20;;;4.30;94.50;;;;;;5059928;28;20064;-79
2022/01/15 12:43:28;;;;;;;5.03;2.08;;;4.30;94.50;;;;;;5059332;28;20047;-78
2022/01/15 12:45:58;;;;;;;6.38;2.00;;;4.20;94.50;;;;;;5059151;28;20093;-78
2022/01/15 12:48:27;;;;;;;8.13;2.60;;;4.20;94.50;;;;;;5059640;28;20040;-78
2022/01/15 12:50:57;;;;;;;6.63;2.33;;;4.20;94.60;;;;;;5058893;28;20043;-78
2022/01/15 12:53:26;;;;;;;5.82;2.03;;;4.10;94.60;;;;;;5084289;28;20047;-79
2022/01/15 12:55:53;;;;;;;7.32;2.50;;;4.10;94.60;;;;;;5083810;28;20051;-78
2022/01/15 12:58:22;;;;;;;6.93;2.17;;;4.20;94.60;;;;;;5083200;28;20481;-78
2022/01/15 13:00:49;;;;;;;7.15;2.40;;;4.20;94.60;;;;;;5083551;28;20028;-78
2022/01/15 13:03:19;;;;;;;4.28;1.80;;;4.20;94.60;;;;;;5083473;28;20058;-78
2022/01/15 13:05:50;;;;;;;4.60;1.80;;;4.10;94.50;;;;;;5083883;28;20043;-78
2022/01/15 13:08:18;;;;;;;5.35;2.03;;;4.30;94.60;;;;;;5084440;27;20064;-78
2022/01/15 13:10:56;;;;;;;8.43;2.65;;;4.20;94.50;;;;;;5084509;28;20070;-78
2022/01/15 13:13:27;;;;;;;8.32;2.83;;;4.30;94.60;;;;;;5084619;28;20039;-79
2022/01/15 13:16:09;;;;;;;6.53;1.98;;;4.10;94.50;;;;;;5084390;28;20042;-78
2022/01/15 13:18:38;;;;;;;4.70;1.90;;;4.00;94.50;;;;;;5098642;28;20055;-78
2022/01/15 13:21:07;;;;;;;7.65;2.45;;;4.20;94.60;;;;;;5083523;28;20043;-79
2022/01/15 13:23:37;;;;;;;4.93;1.80;;;3.90;94.50;;;;;;5083454;28;20122;-79
2022/01/15 13:26:04;;;;;;;5.55;2.00;;;4.10;94.70;;;;;;5083237;27;20039;-79
2022/01/15 13:28:30;;;;;;;5.43;2.00;;;4.10;94.70;;;;;;5082956;28;20051;-79
2022/01/15 13:30:57;;;;;;;6.47;2.25;;;4.00;94.60;;;;;;5083342;28;20513;-79
2022/01/15 13:33:49;;;;;;;6.78;2.10;;;3.90;94.50;;;;;;5083584;28;20122;-79
2022/01/15 13:36:17;;;;;;;4.03;1.50;;;3.90;94.60;;;;;;5085219;28;20196;-78
2022/01/15 13:38:45;;;;;;;4.97;1.83;;;3.90;94.60;;;;;;5083186;28;20043;-79
2022/01/15 13:41:18;;;;;;;7.35;2.47;;;4.00;94.60;;;;;;5083002;28;20112;-79
2022/01/15 13:43:49;;;;;;;6.75;2.13;;;3.90;94.60;;;;;;5083678;28;20485;-78
2022/01/15 13:46:19;;;;;;;5.38;2.35;;;3.90;94.50;;;;;;5083686;28;20092;-79
2022/01/15 13:48:53;;;;;;;6.07;2.03;;;3.70;94.50;;;;;;5082776;28;20080;-79
2022/01/15 13:54:10;;;;;;;4.25;2.00;;;3.70;94.70;;;;;;5104752;28;20405;-78
2022/01/15 13:56:39;;;;;;;4.00;1.52;;;3.70;94.70;;;;;;5083188;28;20088;-79
2022/01/15 13:59:06;;;;;;;5.45;1.77;;;3.70;94.70;;;;;;5082826;28;20137;-79
2022/01/15 14:01:37;;;;;;;4.05;1.55;;;3.70;94.70;;;;;;5082593;28;20040;-79
2022/01/15 14:04:24;;;;;;;3.72;1.75;;;3.80;94.70;;;;;;5082960;28;20050;-79
2022/01/15 14:06:50;;;;;;;3.83;1.40;;;3.80;94.60;;;;;;5099303;28;20375;-78
2022/01/15 14:09:17;;;;;;;5.00;1.77;;;3.80;94.60;;;;;;5082228;28;20047;-79
2022/01/15 14:12:08;;;;;;;4.07;1.67;;;3.80;94.60;;;;;;5082862;28;20039;-79
2022/01/15 14:14:52;;;;;;;4.93;1.83;;;3.80;94.60;;;;;;5099071;28;20039;-78
2022/01/15 14:17:21;;;;;;;4.68;2.10;;;3.80;94.60;;;;;;5098688;28;20443;-78
2022/01/15 14:22:31;;;;;;;5.90;2.08;;;3.70;94.60;;;;;;5102642;28;20048;-79
2022/01/15 14:25:15;;;;;;;5.13;1.90;;;3.80;94.60;;;;;;5082939;28;20095;-79
2022/01/15 14:27:41;;;;;;;4.40;1.85;;;3.80;94.50;;;;;;5099202;28;20486;-78
2022/01/15 14:30:08;;;;;;;5.38;2.20;;;3.80;94.50;;;;;;5082503;28;20062;-79